createdAt,value
2016-08-27T00:02:03.196Z,21.6
2016-08-27T00:07:03.006Z,21.4
2016-08-27T00:12:03.465Z,21.4
2016-08-27T00:17:04.017Z,21.3
2016-08-27T00:22:03.619Z,21.3
2016-08-27T00:27:03.876Z,21.2
2016-08-27T00:32:03.531Z,21.2
2016-08-27T00:37:02.840Z,21.1
2016-08-27T00:42:03.365Z,21.0
2016-08-27T00:47:02.883Z,20.9
2016-08-27T00:52:03.460Z,20.8
2016-08-27T00:57:02.997Z,20.8
2016-08-27T01:02:03.523Z,20.7
2016-08-27T01:07:03.388Z,20.7
2016-08-27T01:12:02.928Z,20.5
2016-08-27T01:17:03.615Z,20.5
2016-08-27T01:22:03.200Z,20.5
2016-08-27T01:27:03.446Z,20.3
2016-08-27T01:32:03.048Z,20.2
2016-08-27T01:37:03.444Z,20.1
2016-08-27T01:42:02.898Z,20.2
2016-08-27T01:47:03.398Z,20.0
2016-08-27T01:52:03.628Z,20.0
2016-08-27T01:57:03.166Z,19.9
2016-08-27T02:02:03.716Z,19.9
2016-08-27T02:07:03.838Z,19.8
2016-08-27T02:12:03.532Z,19.7
2016-08-27T02:17:04.033Z,19.7
2016-08-27T02:22:03.387Z,19.6
2016-08-27T02:27:03.892Z,19.5
2016-08-27T02:32:03.623Z,19.3
2016-08-27T02:37:03.264Z,19.3
2016-08-27T02:42:03.716Z,19.3
2016-08-27T02:47:03.500Z,19.3
2016-08-27T02:52:03.012Z,19.3
2016-08-27T02:57:03.469Z,19.3
2016-08-27T03:02:03.304Z,19.3
2016-08-27T03:07:03.137Z,19.1
2016-08-27T03:12:03.577Z,19.2
2016-08-27T03:17:03.632Z,19.1
2016-08-27T03:22:03.581Z,19.1
2016-08-27T03:27:03.179Z,19.1
2016-08-27T03:32:03.803Z,19.1
2016-08-27T03:37:03.271Z,19.0
2016-08-27T03:42:03.561Z,19.0
2016-08-27T03:47:04.668Z,19.0
2016-08-27T03:52:02.886Z,19.0
2016-08-27T03:57:03.493Z,18.9
2016-08-27T04:02:13.972Z,18.9
2016-08-27T04:07:03.669Z,18.9
2016-08-27T04:12:03.892Z,18.9
2016-08-27T04:17:16.898Z,18.7
2016-08-27T04:22:03.011Z,18.7
2016-08-27T04:27:03.758Z,18.5
2016-08-27T04:32:16.981Z,18.5
2016-08-27T04:37:03.313Z,18.5
2016-08-27T04:42:03.484Z,18.6
2016-08-27T04:47:17.485Z,18.5
2016-08-27T04:52:03.445Z,18.6
2016-08-27T04:57:03.710Z,18.6
2016-08-27T05:02:17.663Z,18.7
2016-08-27T05:07:03.528Z,18.7
2016-08-27T05:12:03.091Z,18.7
2016-08-27T05:17:17.400Z,18.9
2016-08-27T05:22:03.769Z,19.1
2016-08-27T05:27:03.156Z,19.3
2016-08-27T05:32:17.368Z,19.5
2016-08-27T05:37:03.331Z,19.4
2016-08-27T05:42:03.830Z,19.6
2016-08-27T05:47:17.148Z,19.9
2016-08-27T05:52:03.764Z,19.8
2016-08-27T05:57:03.255Z,20.0
2016-08-27T06:02:17.283Z,20.2
2016-08-27T06:07:03.795Z,20.5
2016-08-27T06:12:03.097Z,20.4
2016-08-27T06:17:17.168Z,20.7
2016-08-27T06:22:03.464Z,21.2
2016-08-27T06:27:03.708Z,21.4
2016-08-27T06:32:20.799Z,21.6
2016-08-27T06:37:03.814Z,21.9
2016-08-27T06:42:03.142Z,22.2
2016-08-27T06:47:17.335Z,22.6
2016-08-27T06:52:03.549Z,22.6
2016-08-27T06:57:02.900Z,23.2
2016-08-27T07:02:16.892Z,23.4
2016-08-27T07:07:03.343Z,23.7
2016-08-27T07:12:03.118Z,23.7
2016-08-27T07:17:17.432Z,24.4
2016-08-27T07:22:03.896Z,24.8
2016-08-27T07:27:03.322Z,24.7
2016-08-27T07:32:16.825Z,25.1
2016-08-27T07:37:03.853Z,25.4
2016-08-27T07:42:03.514Z,26.0
2016-08-27T07:47:17.335Z,26.3
2016-08-27T07:52:03.289Z,26.3
2016-08-27T07:57:03.642Z,26.7
2016-08-27T08:02:21.914Z,27.4
2016-08-27T08:07:03.594Z,27.7
2016-08-27T08:12:03.702Z,27.8
2016-08-27T08:17:17.809Z,28.2
2016-08-27T08:22:03.200Z,29.0
2016-08-27T08:27:03.291Z,29.4
2016-08-27T08:32:17.221Z,29.4
2016-08-27T08:37:03.076Z,29.9
2016-08-27T08:42:02.914Z,30.6
2016-08-27T08:47:19.235Z,30.6
2016-08-27T08:52:03.723Z,31.0
2016-08-27T08:57:03.660Z,31.9
2016-08-27T09:02:17.675Z,32.3
2016-08-27T09:07:03.166Z,32.3
2016-08-27T09:12:03.341Z,32.8
2016-08-27T09:17:17.236Z,33.6
2016-08-27T09:22:03.385Z,33.6
2016-08-27T09:27:03.256Z,33.9
2016-08-27T09:32:16.983Z,34.7
2016-08-27T09:37:03.810Z,34.6
2016-08-27T09:42:03.723Z,35.0
2016-08-27T09:47:17.289Z,35.5
2016-08-27T09:52:02.911Z,35.8
2016-08-27T09:57:03.769Z,35.7
2016-08-27T10:02:17.610Z,36.0
2016-08-27T10:07:03.428Z,36.6
2016-08-27T10:12:03.340Z,36.5
2016-08-27T10:17:17.253Z,36.7
2016-08-27T10:22:02.884Z,37.3
2016-08-27T10:27:03.612Z,37.3
2016-08-27T10:32:17.076Z,37.6
2016-08-27T10:37:03.511Z,37.8
2016-08-27T10:42:03.713Z,38.0
2016-08-27T10:47:17.498Z,38.2
2016-08-27T10:52:02.845Z,38.2
2016-08-27T10:57:03.561Z,38.3
2016-08-27T11:02:17.224Z,38.5
2016-08-27T11:07:03.236Z,38.6
2016-08-27T11:12:03.155Z,38.6
2016-08-27T11:17:18.242Z,38.9
2016-08-27T11:22:03.762Z,39.0
2016-08-27T11:27:03.412Z,39.2
2016-08-27T11:32:16.850Z,39.6
2016-08-27T11:37:03.450Z,39.4
2016-08-27T11:42:03.033Z,39.0
2016-08-27T11:47:17.780Z,38.9
2016-08-27T11:52:03.676Z,39.3
2016-08-27T11:57:03.442Z,39.3
2016-08-27T12:02:17.171Z,39.3
2016-08-27T12:07:03.674Z,39.4
2016-08-27T12:12:03.639Z,39.6
2016-08-27T12:17:17.566Z,40.2
2016-08-27T12:22:03.337Z,40.5
2016-08-27T12:27:03.012Z,40.8
2016-08-27T12:32:17.525Z,40.9
2016-08-27T12:37:03.714Z,41.1
2016-08-27T12:42:02.987Z,39.7
2016-08-27T12:47:16.742Z,38.6
2016-08-27T12:52:02.807Z,38.6
2016-08-27T12:57:03.508Z,39.7
2016-08-27T13:02:16.981Z,39.7
2016-08-27T13:07:02.951Z,40.4
2016-08-27T13:12:03.589Z,41.1
2016-08-27T13:17:22.906Z,41.6
2016-08-27T13:22:03.822Z,41.6
2016-08-27T13:27:03.114Z,41.4
2016-08-27T13:32:17.354Z,41.3
2016-08-27T13:37:03.089Z,41.7
2016-08-27T13:42:03.443Z,42.1
2016-08-27T13:47:15.477Z,42.7
2016-08-27T13:52:03.658Z,42.7
2016-08-27T13:57:03.103Z,44.0
2016-08-27T20:02:04.412Z,27.8
2016-08-27T20:07:03.783Z,27.5
2016-08-27T20:12:03.218Z,27.5
2016-08-27T20:17:03.117Z,27.3
2016-08-27T20:22:03.013Z,27.0
2016-08-27T20:27:03.770Z,26.3
2016-08-27T20:32:05.034Z,26.1
2016-08-27T20:37:03.111Z,26.1
2016-08-27T20:42:03.740Z,26.1
2016-08-27T20:52:03.761Z,25.9
2016-08-27T20:57:03.235Z,25.9
2016-08-27T21:02:03.261Z,25.9
2016-08-27T21:07:03.386Z,25.8
2016-08-27T21:12:03.843Z,25.8
2016-08-27T21:17:03.522Z,25.5
2016-08-27T21:22:03.803Z,25.5
2016-08-27T21:27:03.118Z,25.3
2016-08-27T21:32:03.112Z,25.2
2016-08-27T21:37:03.710Z,25.2
2016-08-27T21:42:03.488Z,25.0
2016-08-27T21:47:03.792Z,25.0
2016-08-27T21:52:03.348Z,24.9
2016-08-27T21:57:03.193Z,24.7
2016-08-27T22:02:03.369Z,24.6
2016-08-27T22:07:03.555Z,24.5
2016-08-27T22:12:03.723Z,24.5
2016-08-27T22:22:03.747Z,24.2
2016-08-27T22:27:02.929Z,24.0
2016-08-27T22:32:03.386Z,24.0
2016-08-27T22:37:03.736Z,24.0
2016-08-27T22:42:03.413Z,24.0
2016-08-27T22:47:03.187Z,23.9
2016-08-27T22:52:03.602Z,23.9
2016-08-27T22:57:03.129Z,23.9
2016-08-27T23:02:03.586Z,23.8
2016-08-27T23:07:03.036Z,23.8
2016-08-27T23:12:03.781Z,23.8
2016-08-27T23:17:03.431Z,23.6
2016-08-27T23:22:03.378Z,23.4
2016-08-27T23:27:03.734Z,23.3
2016-08-27T23:32:03.481Z,23.3
2016-08-27T23:37:02.943Z,23.2
2016-08-27T23:42:03.450Z,23.1
2016-08-27T23:47:04.437Z,23.1
2016-08-27T23:52:03.321Z,22.9
2016-08-27T23:57:03.763Z,22.9
